Time;durP1;ratioP1;P1;durP2;ratioP2;P2;SDS_P1;SDS_P2;PMS_P1;PMS_P2;Temp;Humidity;BMP_temperature;BMP_pressure;BME280_temperature;BME280_humidity;BME280_pressure;Samples;Min_cycle;Max_cycle;Signal;HPM_P1;HPM_P2
2023/08/08 00:00:30;;;;;;;;;;;;;;;27.39;40.90;94531.66;5012339;28;7268;-85
2023/08/08 00:02:56;;;;;;;;;;;;;;;27.39;40.25;94530.91;5007908;28;8609;-85
2023/08/08 00:05:23;;;;;;;;;;;;;;;27.40;40.90;94541.44;5031286;28;8747;-85
2023/08/08 00:07:49;;;;;;;;;;;;;;;27.41;40.49;94536.66;5016313;28;8653;-85
2023/08/08 00:10:15;;;;;;;;;;;;;;;27.39;40.43;94531.66;5032737;28;9172;-85
2023/08/08 00:12:41;;;;;;;;;;;;;;;27.40;40.73;94540.69;5008360;28;6918;-85
2023/08/08 00:15:09;;;;;;;;;;;;;;;27.40;40.48;94532.41;5027688;28;9023;-86
2023/08/08 00:17:35;;;;;;;;;;;;;;;27.38;40.28;94523.91;5027027;28;7323;-85
2023/08/08 00:20:05;;;;;;;;;;;;;;;27.40;40.46;94529.66;5026826;28;9000;-85
2023/08/08 00:22:37;;;;;;;;;;;;;;;27.34;40.83;94520.66;5009388;28;9860;-85
2023/08/08 00:25:07;;;;;;;;;;;;;;;27.37;40.54;94525.91;5008518;28;9356;-85
2023/08/08 00:27:39;;;;;;;;;;;;;;;27.33;40.95;94519.91;5026347;28;8731;-86
2023/08/08 00:30:08;;;;;;;;;;;;;;;27.37;40.39;94516.88;5021441;28;9134;-85
2023/08/08 00:32:34;;;;;;;;;;;;;;;27.38;40.77;94527.38;5010559;28;7041;-85
2023/08/08 00:35:00;;;;;;;;;;;;;;;27.36;40.60;94516.09;5010805;28;8732;-85
2023/08/08 00:37:28;;;;;;;;;;;;;;;27.36;40.75;94516.09;5025497;28;8233;-85
2023/08/08 00:39:56;;;;;;;;;;;;;;;27.32;40.40;94515.63;5025879;28;9098;-85
2023/08/08 00:42:22;;;;;;;;;;;;;;;27.31;40.51;94505.09;5009626;28;7381;-85
2023/08/08 00:44:51;;;;;;;;;;;;;;;27.36;40.76;94499.53;5007782;28;7279;-85
2023/08/08 00:47:19;;;;;;;;;;;;;;;27.35;40.66;94503.59;5009019;28;8563;-86
2023/08/08 00:49:48;;;;;;;;;;;;;;;27.31;41.02;94503.09;5011128;28;9106;-87
2023/08/08 00:52:16;;;;;;;;;;;;;;;27.33;40.36;94497.03;5024571;28;7040;-86
2023/08/08 00:54:42;;;;;;;;;;;;;;;27.33;40.16;94503.31;5008698;28;7008;-86
2023/08/08 00:57:09;;;;;;;;;;;;;;;27.32;40.70;94501.81;5010095;28;7119;-86
2023/08/08 00:59:35;;;;;;;;;;;;;;;27.33;40.90;94497.81;5012481;28;8711;-87
2023/08/08 01:02:02;;;;;;;;;;;;;;;27.34;40.74;94504.09;5010671;28;9112;-86
2023/08/08 01:04:28;;;;;;;;;;;;;;;27.24;40.72;94495.38;5009947;28;8701;-86
2023/08/08 01:07:28;;;;;;;;;;;;;;;27.31;40.78;94494.81;5029210;28;9031;-86
2023/08/08 01:10:11;;;;;;;;;;;;;;;27.29;40.69;94502.88;5024563;28;6996;-86
2023/08/08 01:12:48;;;;;;;;;;;;;;;27.28;40.39;94504.13;5009980;28;6989;-87
2023/08/08 01:15:15;;;;;;;;;;;;;;;27.28;40.70;94497.84;5007497;28;9057;-86
2023/08/08 01:17:45;;;;;;;;;;;;;;;27.30;41.00;94509.13;5012372;28;9042;-86
2023/08/08 01:20:16;;;;;;;;;;;;;;;27.28;40.57;94501.38;5009487;28;9207;-87
2023/08/08 01:23:03;;;;;;;;;;;;;;;27.28;40.49;94500.63;5010273;28;7030;-86
2023/08/08 01:25:31;;;;;;;;;;;;;;;27.27;40.93;94488.09;5018324;28;7419;-87
2023/08/08 01:27:57;;;;;;;;;;;;;;;27.21;40.73;94474.31;5024817;28;8781;-86
2023/08/08 01:30:25;;;;;;;;;;;;;;;27.25;40.43;94485.09;5025733;28;9032;-86
2023/08/08 01:32:51;;;;;;;;;;;;;;;27.30;40.33;94500.84;5024783;28;7307;-87
2023/08/08 01:35:17;;;;;;;;;;;;;;;27.23;40.76;94482.09;5024635;28;8711;-87
2023/08/08 01:37:58;;;;;;;;;;;;;;;27.28;40.39;94495.84;5024823;28;7413;-86
2023/08/08 01:40:31;;;;;;;;;;;;;;;27.26;40.38;94486.56;5024825;28;9206;-87
2023/08/08 01:42:59;;;;;;;;;;;;;;;27.23;40.39;94482.84;5021840;28;9138;-87
2023/08/08 01:45:25;;;;;;;;;;;;;;;27.26;40.39;94484.56;5008155;28;9639;-86
2023/08/08 01:47:52;;;;;;;;;;;;;;;27.25;40.68;94485.81;5005679;28;9059;-87
2023/08/08 01:50:18;;;;;;;;;;;;;;;27.20;40.38;94483.88;5021619;28;7095;-87
2023/08/08 01:52:46;;;;;;;;;;;;;;;27.18;40.49;94472.63;5001222;28;8594;-87
2023/08/08 01:55:12;;;;;;;;;;;;;;;27.23;40.76;94469.03;5004911;28;9050;-86
2023/08/08 01:57:38;;;;;;;;;;;;;;;27.16;40.30;94466.88;5023367;28;9134;-87
2023/08/08 02:00:09;;;;;;;;;;;;;;;27.23;40.68;94471.78;5011167;28;8851;-88
2023/08/08 02:02:35;;;;;;;;;;;;;;;27.23;40.29;94471.06;5007869;28;8718;-87
2023/08/08 02:05:02;;;;;;;;;;;;;;;27.19;40.67;94460.28;5012163;28;9108;-88
2023/08/08 02:07:28;;;;;;;;;;;;;;;27.19;40.08;94454.00;5010473;28;9023;-88
2023/08/08 02:09:55;;;;;;;;;;;;;;;27.16;40.86;94444.03;5001639;28;9119;-88
2023/08/08 02:12:28;;;;;;;;;;;;;;;27.15;40.60;94448.03;5006341;28;7255;-87
2023/08/08 02:14:54;;;;;;;;;;;;;;;27.20;40.46;94459.03;5023959;28;9024;-88
2023/08/08 02:17:21;;;;;;;;;;;;;;;27.18;40.75;94458.06;5025165;28;8563;-88
2023/08/08 02:19:48;;;;;;;;;;;;;;;27.17;40.48;94457.31;5005237;28;7222;-88
2023/08/08 02:22:17;;;;;;;;;;;;;;;27.20;41.01;94455.53;5005088;28;9021;-88
2023/08/08 02:24:43;;;;;;;;;;;;;;;27.15;40.70;94462.59;5023586;28;8671;-88
2023/08/08 02:27:11;;;;;;;;;;;;;;;27.13;40.63;94451.34;5002883;28;9227;-88
2023/08/08 02:29:40;;;;;;;;;;;;;;;27.17;40.28;94462.84;5009371;28;9052;-87
2023/08/08 02:32:07;;;;;;;;;;;;;;;27.15;40.49;94457.09;5025736;28;8615;-87
2023/08/08 02:34:33;;;;;;;;;;;;;;;27.14;40.70;94452.84;5021282;28;7231;-87
2023/08/08 02:37:01;;;;;;;;;;;;;;;27.08;41.04;94454.91;5016860;28;6886;-88
2023/08/08 02:39:27;;;;;;;;;;;;;;;27.08;40.53;94449.38;5012090;28;6882;-88
2023/08/08 02:41:53;;;;;;;;;;;;;;;27.15;40.13;94454.31;5009356;28;9310;-88
2023/08/08 02:44:19;;;;;;;;;;;;;;;27.12;40.72;94444.31;5011539;28;8829;-88
2023/08/08 02:46:46;;;;;;;;;;;;;;;27.07;40.33;94436.84;5011357;28;7420;-88
2023/08/08 02:49:12;;;;;;;;;;;;;;;27.06;40.44;94446.38;5014291;28;8725;-88
2023/08/08 02:51:40;;;;;;;;;;;;;;;27.10;40.31;94448.88;5023344;28;8764;-88
2023/08/08 02:54:06;;;;;;;;;;;;;;;27.11;40.33;94450.34;5015128;28;7174;-88
2023/08/08 02:56:35;;;;;;;;;;;;;;;27.05;40.36;94438.63;5026255;28;8718;-88
2023/08/08 02:59:01;;;;;;;;;;;;;;;27.11;39.95;94448.34;5027851;28;9084;-87
2023/08/08 03:01:29;;;;;;;;;;;;;;;27.07;40.62;94450.66;5009393;28;9111;-88
2023/08/08 03:03:55;;;;;;;;;;;;;;;27.12;40.85;94466.38;5021560;28;7838;-88
2023/08/08 03:06:22;;;;;;;;;;;;;;;27.10;40.68;94457.88;5034118;28;7413;-87
2023/08/08 03:08:48;;;;;;;;;;;;;;;27.07;40.59;94456.19;5030240;28;8831;-87
2023/08/08 03:11:14;;;;;;;;;;;;;;;27.02;41.02;94448.69;5028689;28;7037;-86
2023/08/08 03:13:40;;;;;;;;;;;;;;;27.07;40.36;94458.19;5028100;28;8148;-87
2023/08/08 03:16:11;;;;;;;;;;;;;;;27.09;40.62;94461.94;5004993;28;8585;-86
2023/08/08 03:18:38;;;;;;;;;;;;;;;27.10;40.34;94466.16;5028830;28;8682;-87
2023/08/08 03:21:04;;;;;;;;;;;;;;;27.07;40.42;94458.94;5010438;28;8584;-86
2023/08/08 03:23:31;;;;;;;;;;;;;;;27.08;40.49;94467.97;5024588;28;8766;-86
2023/08/08 03:25:57;;;;;;;;;;;;;;;27.04;40.61;94456.44;5010684;28;9108;-87
2023/08/08 03:28:24;;;;;;;;;;;;;;;27.06;40.46;94457.44;5013298;28;9046;-86
2023/08/08 03:30:50;;;;;;;;;;;;;;;27.05;40.09;94455.94;5028612;28;8838;-87
2023/08/08 03:33:16;;;;;;;;;;;;;;;27.04;40.14;94459.97;5011120;28;9007;-86
2023/08/08 03:35:43;;;;;;;;;;;;;;;27.03;40.42;94452.22;5016105;28;8999;-86
2023/08/08 03:38:10;;;;;;;;;;;;;;;27.02;40.44;94447.94;5022554;28;8796;-86
2023/08/08 03:40:36;;;;;;;;;;;;;;;27.00;40.70;94447.72;5008883;28;7385;-87
2023/08/08 03:43:02;;;;;;;;;;;;;;;27.03;40.25;94458.47;5013829;28;8980;-87
2023/08/08 03:45:31;;;;;;;;;;;;;;;27.04;39.73;94459.97;5017120;28;7036;-87
2023/08/08 03:47:58;;;;;;;;;;;;;;;26.98;40.23;94462.03;5026939;28;8984;-86
2023/08/08 03:50:24;;;;;;;;;;;;;;;26.96;40.30;94453.53;5038375;28;8741;-86
2023/08/08 03:52:50;;;;;;;;;;;;;;;26.97;39.99;94457.06;5013219;28;7631;-86
2023/08/08 03:55:16;;;;;;;;;;;;;;;27.02;40.39;94470.03;4999820;28;9144;-86
2023/08/08 03:57:42;;;;;;;;;;;;;;;26.96;40.34;94464.56;5010143;28;9063;-86
2023/08/08 04:00:08;;;;;;;;;;;;;;;27.00;40.61;94476.06;5037451;28;8989;-87
2023/08/08 04:02:34;;;;;;;;;;;;;;;27.00;39.69;94478.84;5015157;28;9145;-86
2023/08/08 04:05:03;;;;;;;;;;;;;;;26.97;40.16;94474.34;5021546;28;8591;-87
2023/08/08 04:07:29;;;;;;;;;;;;;;;26.98;40.36;94480.63;5026267;28;8765;-86
2023/08/08 04:09:56;;;;;;;;;;;;;;;27.00;40.48;94480.84;5008156;28;9053;-87
2023/08/08 04:12:22;;;;;;;;;;;;;;;26.99;40.37;94482.84;5009540;28;7259;-87
2023/08/08 04:14:48;;;;;;;;;;;;;;;26.99;40.01;94479.34;5024336;28;9002;-87
2023/08/08 04:17:14;;;;;;;;;;;;;;;26.97;40.71;94477.09;5013421;28;9365;-86
2023/08/08 04:19:40;;;;;;;;;;;;;;;26.93;40.59;94476.66;5009807;28;9033;-87
2023/08/08 04:22:07;;;;;;;;;;;;;;;26.96;40.74;94474.88;5012290;28;9164;-86
2023/08/08 04:24:36;;;;;;;;;;;;;;;26.96;40.30;94478.38;5021296;28;8909;-86
2023/08/08 04:27:03;;;;;;;;;;;;;;;26.89;40.17;94474.19;5027128;28;9009;-86
2023/08/08 04:29:34;;;;;;;;;;;;;;;26.96;40.48;94488.66;5026558;28;7078;-86
2023/08/08 04:32:03;;;;;;;;;;;;;;;26.96;40.75;94486.66;5010791;28;8756;-86
2023/08/08 04:34:29;;;;;;;;;;;;;;;26.96;40.27;94492.19;5025718;28;9066;-87
2023/08/08 04:36:55;;;;;;;;;;;;;;;26.96;40.72;94486.66;5026911;28;9100;-87
2023/08/08 04:39:21;;;;;;;;;;;;;;;26.91;40.44;94484.69;5011394;28;7367;-86
2023/08/08 04:41:48;;;;;;;;;;;;;;;26.94;40.51;94489.19;5009736;28;8698;-86
2023/08/08 04:44:15;;;;;;;;;;;;;;;26.87;40.38;94478.72;5026441;28;8905;-86
2023/08/08 04:46:41;;;;;;;;;;;;;;;26.92;40.53;94486.19;5008042;28;8763;-87
2023/08/08 04:49:07;;;;;;;;;;;;;;;26.94;40.44;94482.91;5010084;28;9013;-86
2023/08/08 04:51:35;;;;;;;;;;;;;;;26.87;40.36;94479.47;5025682;28;9305;-86
2023/08/08 04:54:03;;;;;;;;;;;;;;;26.91;40.83;94495.75;5034301;28;8624;-86
2023/08/08 04:56:30;;;;;;;;;;;;;;;26.89;40.58;94487.97;5021671;28;9082;-87
2023/08/08 04:58:59;;;;;;;;;;;;;;;26.92;40.01;94493.72;5011133;28;8742;-86
2023/08/08 05:01:27;;;;;;;;;;;;;;;26.86;40.57;94485.50;5010699;28;9087;-87
2023/08/08 05:03:53;;;;;;;;;;;;;;;26.86;40.78;94491.75;5012892;28;9020;-86
2023/08/08 05:06:19;;;;;;;;;;;;;;;26.85;40.58;94486.78;5011950;28;7057;-86
2023/08/08 05:08:46;;;;;;;;;;;;;;;26.86;40.57;94493.78;5009523;28;7024;-86
2023/08/08 05:11:14;;;;;;;;;;;;;;;26.90;40.48;94499.78;5007086;28;7216;-86
2023/08/08 05:13:40;;;;;;;;;;;;;;;26.89;40.50;94495.50;5008199;28;10162;-86
2023/08/08 05:16:06;;;;;;;;;;;;;;;26.92;40.66;94500.00;5029495;28;8588;-87
2023/08/08 05:18:35;;;;;;;;;;;;;;;26.91;40.14;94504.00;5009641;28;8627;-86
2023/08/08 05:21:05;;;;;;;;;;;;;;;26.93;40.39;94498.72;5021118;28;10299;-86
2023/08/08 05:23:31;;;;;;;;;;;;;;;26.90;40.76;94497.00;5012022;28;7105;-86
2023/08/08 05:25:57;;;;;;;;;;;;;;;26.86;40.08;94493.78;5008902;28;7303;-86
2023/08/08 05:28:23;;;;;;;;;;;;;;;26.90;40.74;94499.78;5007378;28;9062;-86
2023/08/08 05:30:50;;;;;;;;;;;;;;;26.92;40.04;94502.75;5005182;28;7477;-85
2023/08/08 05:33:16;;;;;;;;;;;;;;;26.84;40.61;94494.28;5007290;28;9331;-85
2023/08/08 05:35:42;;;;;;;;;;;;;;;26.87;40.40;94501.56;5006305;28;7270;-85
2023/08/08 05:38:15;;;;;;;;;;;;;;;26.90;40.72;94505.28;5007711;28;8593;-85
2023/08/08 05:40:47;;;;;;;;;;;;;;;26.92;40.35;94500.72;5019778;28;7114;-85
2023/08/08 05:43:18;;;;;;;;;;;;;;;26.92;40.97;94502.00;5018722;28;7272;-86
2023/08/08 05:45:46;;;;;;;;;;;;;;;26.91;40.41;94506.78;5008232;28;7265;-85
2023/08/08 05:48:16;;;;;;;;;;;;;;;26.93;40.00;94507.00;5011632;28;9008;-85
2023/08/08 05:50:45;;;;;;;;;;;;;;;26.91;40.05;94506.78;5009793;28;8629;-85
2023/08/08 05:53:13;;;;;;;;;;;;;;;26.86;39.84;94504.84;5004702;28;7046;-85
2023/08/08 05:55:42;;;;;;;;;;;;;;;26.86;40.45;94511.09;5021638;28;9173;-85
2023/08/08 05:58:09;;;;;;;;;;;;;;;26.84;40.21;94507.34;5008137;28;9036;-85
2023/08/08 06:00:36;;;;;;;;;;;;;;;26.86;39.92;94521.41;5020541;28;9135;-86
2023/08/08 06:03:02;;;;;;;;;;;;;;;26.85;40.00;94511.59;5020739;28;7226;-85
2023/08/08 06:05:28;;;;;;;;;;;;;;;26.82;40.16;94510.63;5008239;28;6872;-85
2023/08/08 06:07:55;;;;;;;;;;;;;;;26.83;39.76;94511.38;5007302;28;8713;-85
2023/08/08 06:10:25;;;;;;;;;;;;;;;26.84;39.48;94512.84;5007312;28;8608;-86
2023/08/08 06:12:53;;;;;;;;;;;;;;;26.79;39.85;94499.88;5002892;28;6869;-85
2023/08/08 06:15:20;;;;;;;;;;;;;;;26.82;39.44;94504.34;5005013;28;9025;-85
2023/08/08 06:17:46;;;;;;;;;;;;;;;26.76;39.79;94501.66;5027190;28;8792;-85
2023/08/08 06:20:12;;;;;;;;;;;;;;;26.77;40.22;94494.84;5022329;28;8700;-85
2023/08/08 06:22:38;;;;;;;;;;;;;;;26.82;39.84;94501.59;5011612;28;7591;-85
2023/08/08 06:25:05;;;;;;;;;;;;;;;26.85;39.91;94500.56;5006945;28;7034;-85
2023/08/08 06:27:33;;;;;;;;;;;;;;;26.84;39.35;94497.06;5026840;28;8944;-85
2023/08/08 06:30:09;;;;;;;;;;;;;;;26.83;39.07;94501.09;5010399;28;9240;-85
2023/08/08 06:32:38;;;;;;;;;;;;;;;26.78;39.40;94484.56;5020170;28;7247;-85
2023/08/08 06:35:04;;;;;;;;;;;;;;;26.86;38.58;94493.78;5022579;28;7266;-85
2023/08/08 06:37:32;;;;;;;;;;;;;;;26.77;38.77;94483.81;5012151;28;9080;-85
2023/08/08 06:40:01;;;;;;;;;;;;;;;26.86;38.91;94491.03;5025633;28;8741;-85
2023/08/08 06:42:30;;;;;;;;;;;;;;;26.83;39.22;94492.81;5020781;28;9034;-85
2023/08/08 06:44:58;;;;;;;;;;;;;;;26.85;38.97;94492.28;5027372;28;7031;-85
2023/08/08 06:47:29;;;;;;;;;;;;;;;26.86;39.44;94488.28;5012172;28;8783;-85
2023/08/08 06:49:55;;;;;;;;;;;;;;;26.87;39.43;94493.28;5014195;28;8940;-85
2023/08/08 06:52:25;;;;;;;;;;;;;;;26.86;39.34;94496.56;5025279;28;8960;-85
2023/08/08 06:54:51;;;;;;;;;;;;;;;26.85;39.84;94492.28;5017632;28;9073;-86
2023/08/08 06:57:21;;;;;;;;;;;;;;;26.83;39.67;94483.78;5028322;28;8739;-85
2023/08/08 06:59:50;;;;;;;;;;;;;;;26.84;39.63;94491.53;5025223;28;8724;-85
2023/08/08 07:02:18;;;;;;;;;;;;;;;26.83;40.26;94486.53;5022938;28;7027;-86
2023/08/08 07:04:44;;;;;;;;;;;;;;;26.83;39.72;94487.28;5010801;28;9182;-85
2023/08/08 07:07:11;;;;;;;;;;;;;;;26.90;39.09;94494.25;5011549;28;9076;-86
2023/08/08 07:09:39;;;;;;;;;;;;;;;26.89;39.05;94499.03;5024107;28;8689;-86
2023/08/08 07:12:06;;;;;;;;;;;;;;;26.90;39.48;94499.78;5028997;28;9083;-86
2023/08/08 07:14:35;;;;;;;;;;;;;;;26.90;40.12;94494.25;5013955;28;6996;-85
2023/08/08 07:17:03;;;;;;;;;;;;;;;26.89;39.53;94495.50;5011499;28;7043;-86
2023/08/08 07:19:29;;;;;;;;;;;;;;;26.85;40.13;94486.78;5005006;28;8956;-86
2023/08/08 07:22:00;;;;;;;;;;;;;;;26.86;39.65;94489.00;5022694;28;8742;-85
2023/08/08 07:24:31;;;;;;;;;;;;;;;26.85;39.82;94489.53;5009580;28;7281;-86
2023/08/08 07:26:58;;;;;;;;;;;;;;;26.87;40.14;94473.94;5009895;28;8739;-85
2023/08/08 07:29:27;;;;;;;;;;;;;;;26.89;39.93;94470.66;5008643;28;9041;-86
2023/08/08 07:31:57;;;;;;;;;;;;;;;26.88;39.82;94474.72;5009102;28;8620;-85
2023/08/08 07:34:32;;;;;;;;;;;;;;;26.82;39.70;94466.47;5025958;28;9108;-86
2023/08/08 07:37:00;;;;;;;;;;;;;;;26.84;39.83;94474.97;5014035;28;9024;-86
2023/08/08 07:39:31;;;;;;;;;;;;;;;26.87;39.71;94467.69;5026499;28;9040;-86
2023/08/08 07:42:01;;;;;;;;;;;;;;;26.83;42.61;94461.69;5010733;28;8967;-85
2023/08/08 07:44:34;;;;;;;;;;;;;;;26.81;40.71;94462.22;5020926;28;8737;-86
2023/08/08 07:47:01;;;;;;;;;;;;;;;26.86;42.72;94474.47;5024924;28;8671;-86
2023/08/08 07:49:27;;;;;;;;;;;;;;;26.87;43.17;94467.69;5007585;28;8823;-86
2023/08/08 07:51:53;;;;;;;;;;;;;;;26.92;42.05;94467.59;5025400;28;9012;-87
2023/08/08 07:54:21;;;;;;;;;;;;;;;26.95;41.82;94460.31;5008455;28;8730;-86
2023/08/08 07:56:47;;;;;;;;;;;;;;;26.92;41.79;94460.59;5023031;28;9033;-85
2023/08/08 07:59:13;;;;;;;;;;;;;;;26.98;41.09;94478.59;5009117;28;7354;-86
2023/08/08 08:01:41;;;;;;;;;;;;;;;26.96;41.15;94480.38;5022458;28;7023;-85
2023/08/08 08:04:08;;;;;;;;;;;;;;;26.96;41.31;94470.09;5010863;28;8711;-86
2023/08/08 08:06:35;;;;;;;;;;;;;;;26.98;40.63;94473.09;5004491;28;8753;-85
2023/08/08 08:09:01;;;;;;;;;;;;;;;26.92;40.71;94466.13;5010581;28;7242;-86
2023/08/08 08:11:28;;;;;;;;;;;;;;;26.92;40.63;94469.66;5009206;28;9002;-85
2023/08/08 08:13:54;;;;;;;;;;;;;;;26.90;40.66;94450.81;5014122;28;7162;-85
2023/08/08 08:16:20;;;;;;;;;;;;;;;26.92;40.89;94455.09;5010830;28;8746;-85
2023/08/08 08:18:47;;;;;;;;;;;;;;;26.91;40.96;94451.56;5009325;28;9049;-86
2023/08/08 08:21:20;;;;;;;;;;;;;;;26.93;40.71;94454.56;5011409;28;8727;-86
2023/08/08 08:23:53;;;;;;;;;;;;;;;26.91;40.75;94454.34;5009346;28;6946;-85
2023/08/08 08:26:19;;;;;;;;;;;;;;;26.95;40.72;94454.06;5023922;28;9378;-86
2023/08/08 08:28:45;;;;;;;;;;;;;;;26.95;40.48;94454.78;5012016;28;8747;-85
2023/08/08 08:31:14;;;;;;;;;;;;;;;26.91;40.51;94446.06;5024976;28;6918;-85
2023/08/08 08:33:44;;;;;;;;;;;;;;;26.94;40.49;94455.31;5010086;28;9016;-84
2023/08/08 08:36:12;;;;;;;;;;;;;;;26.92;40.14;94459.31;5024990;28;7012;-85
2023/08/08 08:38:46;;;;;;;;;;;;;;;26.94;40.16;94449.78;5009459;28;7027;-84
2023/08/08 08:41:22;;;;;;;;;;;;;;;26.94;40.03;94455.31;5017375;28;9116;-85
2023/08/08 08:43:54;;;;;;;;;;;;;;;26.94;40.63;94444.28;5008654;28;8747;-85
2023/08/08 08:46:25;;;;;;;;;;;;;;;26.95;40.65;94445.78;5006603;28;9107;-85
2023/08/08 08:48:51;;;;;;;;;;;;;;;26.94;40.57;94452.56;5022076;28;7275;-85
2023/08/08 08:51:24;;;;;;;;;;;;;;;26.93;40.25;94443.53;5022313;28;9206;-85
2023/08/08 08:53:52;;;;;;;;;;;;;;;26.89;39.95;94443.81;5024355;28;9192;-85
2023/08/08 08:56:23;;;;;;;;;;;;;;;26.90;40.45;94444.56;5007903;28;9082;-84
2023/08/08 08:58:51;;;;;;;;;;;;;;;26.90;40.15;94442.53;5024709;28;9028;-87
2023/08/08 09:01:18;;;;;;;;;;;;;;;26.91;39.99;94446.06;5025383;28;9049;-87
2023/08/08 09:03:45;;;;;;;;;;;;;;;26.90;39.94;94450.81;5023947;28;8705;-87
2023/08/08 09:06:12;;;;;;;;;;;;;;;26.93;39.96;94457.31;5022880;28;8749;-87
2023/08/08 09:08:38;;;;;;;;;;;;;;;26.88;40.58;94441.59;5022418;28;7029;-88
2023/08/08 09:11:05;;;;;;;;;;;;;;;26.92;40.65;94444.03;5011922;28;9034;-87
2023/08/08 09:13:40;;;;;;;;;;;;;;;26.93;40.35;94446.28;5009972;28;9029;-88
2023/08/08 09:16:13;;;;;;;;;;;;;;;26.95;39.36;94452.03;5008926;28;7154;-88
2023/08/08 09:18:42;;;;;;;;;;;;;;;26.99;40.00;94446.22;5025024;28;7317;-87
2023/08/08 09:21:09;;;;;;;;;;;;;;;26.99;39.79;94441.44;5021412;28;9048;-87
2023/08/08 09:23:41;;;;;;;;;;;;;;;27.00;39.70;94442.94;5005894;28;6866;-88
2023/08/08 09:26:08;;;;;;;;;;;;;;;27.00;39.69;94442.94;5025385;28;7046;-88
2023/08/08 09:28:35;;;;;;;;;;;;;;;27.05;39.74;94449.69;5011280;28;9083;-88
2023/08/08 09:31:01;;;;;;;;;;;;;;;27.05;39.59;94444.91;5009805;28;9073;-88
2023/08/08 09:33:30;;;;;;;;;;;;;;;27.01;39.49;94438.94;5008293;28;8755;-88
2023/08/08 09:35:56;;;;;;;;;;;;;;;27.06;39.59;94453.91;5025455;28;8764;-89
2023/08/08 09:38:22;;;;;;;;;;;;;;;27.04;39.80;94451.69;5005207;28;8671;-88
2023/08/08 09:40:53;;;;;;;;;;;;;;;27.04;39.29;94445.41;5024260;28;8815;-88
2023/08/08 09:43:23;;;;;;;;;;;;;;;27.09;39.67;94442.59;5008383;28;7568;-88
2023/08/08 09:45:49;;;;;;;;;;;;;;;27.12;39.17;94449.09;5024950;28;9465;-88
2023/08/08 09:48:17;;;;;;;;;;;;;;;27.04;39.02;94431.59;5010879;28;7166;-88
2023/08/08 09:50:44;;;;;;;;;;;;;;;27.07;38.80;94450.66;5004748;28;7048;-88
2023/08/08 09:53:14;;;;;;;;;;;;;;;27.08;38.74;94438.31;5007910;28;8671;-88
2023/08/08 09:55:40;;;;;;;;;;;;;;;27.13;38.63;94443.06;5017414;28;8604;-89
2023/08/08 09:58:08;;;;;;;;;;;;;;;27.11;38.69;94434.53;5021024;28;7212;-88
2023/08/08 10:00:36;;;;;;;;;;;;;;;27.18;38.95;94441.50;5003722;28;8522;-88
2023/08/08 10:03:07;;;;;;;;;;;;;;;27.19;38.89;94435.44;5007893;28;8735;-88
2023/08/08 10:05:36;;;;;;;;;;;;;;;27.23;39.17;94444.19;5007212;28;9006;-88
2023/08/08 10:08:03;;;;;;;;;;;;;;;27.17;38.38;94432.47;5021010;28;7159;-88
2023/08/08 10:10:30;;;;;;;;;;;;;;;27.20;38.56;94431.44;5019642;28;9050;-88
2023/08/08 10:12:57;;;;;;;;;;;;;;;27.25;38.88;94429.88;5006159;28;9121;-88
2023/08/08 10:15:30;;;;;;;;;;;;;;;27.29;39.00;94436.59;5006138;28;9032;-88
2023/08/08 10:18:00;;;;;;;;;;;;;;;27.30;39.00;94445.59;5010509;28;9086;-88
2023/08/08 10:20:33;;;;;;;;;;;;;;;27.29;39.42;94444.88;5007377;28;9313;-87
2023/08/08 10:23:02;;;;;;;;;;;;;;;27.31;39.43;94445.09;5005015;28;7435;-88
2023/08/08 10:25:30;;;;;;;;;;;;;;;27.27;39.90;94432.84;5009608;28;8739;-87
2023/08/08 10:28:14;;;;;;;;;;;;;;;27.32;39.81;94443.81;5020303;28;9214;-87
2023/08/08 10:30:45;;;;;;;;;;;;;;;27.29;40.17;94436.59;5011895;28;9133;-87
2023/08/08 10:33:23;;;;;;;;;;;;;;;27.31;39.98;94434.06;5008848;28;8729;-87
2023/08/08 10:36:03;;;;;;;;;;;;;;;27.30;39.80;94426.28;5023046;28;7252;-88
2023/08/08 10:38:59;;;;;;;;;;;;;;;27.32;39.90;94430.00;5014519;28;7667;-88
2023/08/08 10:41:26;;;;;;;;;;;;;;;27.32;39.97;94418.97;4965965;28;8617;-88
2023/08/08 10:43:56;;;;;;;;;;;;;;;27.33;39.91;94428.00;4965566;28;8963;-87
2023/08/08 10:46:29;;;;;;;;;;;;;;;27.33;40.12;94426.00;4950587;28;6862;-87
2023/08/08 10:49:05;;;;;;;;;;;;;;;27.34;40.10;94432.28;4948416;28;7268;-87
2023/08/08 10:51:46;;;;;;;;;;;;;;;27.30;40.37;94420.75;4963765;28;9030;-87
2023/08/08 10:54:29;;;;;;;;;;;;;;;27.37;40.21;94429.22;4949204;28;7037;-87
2023/08/08 10:57:01;;;;;;;;;;;;;;;27.37;40.66;94420.19;4949755;28;9092;-87
2023/08/08 10:59:43;;;;;;;;;;;;;;;27.37;41.02;94423.72;4966725;28;7040;-87
2023/08/08 11:02:12;;;;;;;;;;;;;;;27.32;40.56;94424.47;4963058;28;8898;-87
2023/08/08 11:04:41;;;;;;;;;;;;;;;27.32;41.42;94412.69;4964958;28;8764;-87
2023/08/08 11:07:08;;;;;;;;;;;;;;;27.33;40.62;94414.19;4965810;28;7250;-87
2023/08/08 11:09:34;;;;;;;;;;;;;;;27.32;40.84;94407.16;4965152;28;7448;-87
2023/08/08 11:12:03;;;;;;;;;;;;;;;27.30;40.69;94404.94;4967556;28;9020;-87
2023/08/08 11:14:29;;;;;;;;;;;;;;;27.31;40.60;94420.25;4970405;28;8916;-87
2023/08/08 11:16:55;;;;;;;;;;;;;;;27.31;41.35;94411.97;4972838;28;9083;-87
2023/08/08 11:19:22;;;;;;;;;;;;;;;27.31;41.25;94411.22;5008285;28;8675;-86
2023/08/08 11:21:51;;;;;;;;;;;;;;;27.32;41.25;94418.22;5023671;28;7077;-85
2023/08/08 11:24:17;;;;;;;;;;;;;;;27.28;41.23;94398.44;5011723;28;9610;-86
2023/08/08 11:26:47;;;;;;;;;;;;;;;27.34;40.62;94408.13;5009362;28;8692;-85
2023/08/08 11:29:14;;;;;;;;;;;;;;;27.33;40.59;94398.38;5009910;28;8595;-86
2023/08/08 11:31:41;;;;;;;;;;;;;;;27.35;40.49;94406.91;5009321;28;8876;-85
2023/08/08 11:34:17;;;;;;;;;;;;;;;27.30;40.71;94399.41;5014078;28;9093;-85
2023/08/08 11:36:46;;;;;;;;;;;;;;;27.35;40.77;94400.59;5009376;28;10118;-84
2023/08/08 11:39:20;;;;;;;;;;;;;;;27.40;40.46;94400.56;5007422;28;8602;-84
2023/08/08 11:41:46;;;;;;;;;;;;;;;27.44;40.24;94398.25;5024569;28;9073;-84
2023/08/08 11:44:15;;;;;;;;;;;;;;;27.48;40.49;94400.72;5008706;28;7444;-85
2023/08/08 11:46:47;;;;;;;;;;;;;;;27.51;40.45;94407.97;5019678;28;6962;-85
2023/08/08 11:49:15;;;;;;;;;;;;;;;27.54;39.83;94412.44;5010610;28;8735;-85
2023/08/08 11:51:45;;;;;;;;;;;;;;;27.48;39.67;94404.22;5025210;28;9072;-85
2023/08/08 11:54:12;;;;;;;;;;;;;;;27.50;39.99;94406.44;5014240;28;8701;-85
2023/08/08 11:56:41;;;;;;;;;;;;;;;27.48;39.40;94401.47;5024159;28;9002;-85
2023/08/08 11:59:09;;;;;;;;;;;;;;;27.42;39.91;94403.56;5009978;28;9045;-85
2023/08/08 12:01:38;;;;;;;;;;;;;;;27.43;39.96;94396.00;5009096;28;7344;-85
2023/08/08 12:04:06;;;;;;;;;;;;;;;27.48;39.69;94400.72;5025230;28;8767;-85
2023/08/08 12:06:40;;;;;;;;;;;;;;;27.42;39.61;94389.00;5010337;28;8739;-85
2023/08/08 12:09:12;;;;;;;;;;;;;;;27.44;39.92;94397.50;5010573;28;9976;-85
2023/08/08 12:11:44;;;;;;;;;;;;;;;27.49;39.98;94408.47;5021802;28;9230;-85
2023/08/08 12:14:17;;;;;;;;;;;;;;;27.47;39.73;94402.00;5008810;28;9013;-85
2023/08/08 12:16:43;;;;;;;;;;;;;;;27.49;39.83;94411.22;5012531;28;6949;-85
2023/08/08 12:19:21;;;;;;;;;;;;;;;27.53;39.49;94405.41;5010654;28;8759;-86
2023/08/08 12:21:51;;;;;;;;;;;;;;;27.52;39.27;94403.91;5009861;28;9298;-85
2023/08/08 12:24:20;;;;;;;;;;;;;;;27.48;39.45;94398.69;5025587;28;9010;-85
2023/08/08 12:26:49;;;;;;;;;;;;;;;27.49;39.87;94391.16;5012379;28;7278;-84
2023/08/08 12:29:15;;;;;;;;;;;;;;;27.54;39.43;94402.13;5027402;28;8601;-88
2023/08/08 12:31:48;;;;;;;;;;;;;;;27.56;39.32;94404.34;5023849;28;7199;-87
2023/08/08 12:34:15;;;;;;;;;;;;;;;27.52;39.28;94401.16;5012237;28;7279;-87
2023/08/08 12:36:48;;;;;;;;;;;;;;;27.57;38.90;94403.09;5014121;28;9339;-88
2023/08/08 12:39:14;;;;;;;;;;;;;;;27.57;39.36;94403.84;5009048;28;8720;-88
2023/08/08 12:41:40;;;;;;;;;;;;;;;27.54;39.04;94399.38;5025063;28;8734;-87
2023/08/08 12:44:13;;;;;;;;;;;;;;;27.59;39.19;94409.59;5029527;28;9012;-87
2023/08/08 12:46:44;;;;;;;;;;;;;;;27.52;39.47;94407.44;5009482;28;7236;-87
2023/08/08 12:49:10;;;;;;;;;;;;;;;27.56;39.34;94410.63;5010966;28;8795;-87
2023/08/08 12:51:40;;;;;;;;;;;;;;;27.57;39.46;94412.16;5010905;28;7234;-87
2023/08/08 12:54:12;;;;;;;;;;;;;;;27.60;39.30;94416.59;5023296;28;9022;-87
2023/08/08 12:56:40;;;;;;;;;;;;;;;27.60;39.68;94416.59;5007168;28;7280;-87
2023/08/08 12:59:06;;;;;;;;;;;;;;;27.63;39.24;94414.81;5026170;28;10065;-87
2023/08/08 13:01:32;;;;;;;;;;;;;;;27.61;39.09;94409.81;5011952;28;8791;-87
2023/08/08 13:03:58;;;;;;;;;;;;;;;27.61;39.33;94411.81;5006524;28;7268;-87